sensor_id;sensor_type;location;lat;lon;timestamp;P1;durP1;ratioP1;P2;durP2;ratioP2
6531;SDS011;3299;42.004;24.868;2023-04-06T00:00:47;8.98;;;7.90;;
6531;SDS011;3299;42.004;24.868;2023-04-06T00:03:14;8.32;;;7.53;;
6531;SDS011;3299;42.004;24.868;2023-04-06T00:05:39;8.30;;;7.40;;
6531;SDS011;3299;42.004;24.868;2023-04-06T00:08:05;8.20;;;7.40;;
6531;SDS011;3299;42.004;24.868;2023-04-06T00:10:31;8.38;;;7.50;;
6531;SDS011;3299;42.004;24.868;2023-04-06T00:12:57;7.95;;;7.15;;
6531;SDS011;3299;42.004;24.868;2023-04-06T00:15:23;9.57;;;7.80;;
6531;SDS011;3299;42.004;24.868;2023-04-06T00:17:48;9.05;;;7.85;;
6531;SDS011;3299;42.004;24.868;2023-04-06T00:20:14;14.18;;;8.13;;
6531;SDS011;3299;42.004;24.868;2023-04-06T00:22:40;8.57;;;7.65;;
6531;SDS011;3299;42.004;24.868;2023-04-06T00:25:08;9.85;;;8.18;;
6531;SDS011;3299;42.004;24.868;2023-04-06T00:27:35;9.38;;;8.43;;
6531;SDS011;3299;42.004;24.868;2023-04-06T00:30:01;9.40;;;8.27;;
6531;SDS011;3299;42.004;24.868;2023-04-06T00:32:28;7.78;;;7.00;;
6531;SDS011;3299;42.004;24.868;2023-04-06T00:34:53;8.02;;;7.30;;
6531;SDS011;3299;42.004;24.868;2023-04-06T00:37:18;7.97;;;7.18;;
6531;SDS011;3299;42.004;24.868;2023-04-06T00:39:44;10.23;;;7.80;;
6531;SDS011;3299;42.004;24.868;2023-04-06T00:42:13;7.70;;;7.00;;
6531;SDS011;3299;42.004;24.868;2023-04-06T00:44:42;8.27;;;7.57;;
6531;SDS011;3299;42.004;24.868;2023-04-06T00:47:08;8.40;;;7.55;;
6531;SDS011;3299;42.004;24.868;2023-04-06T00:49:33;10.55;;;8.68;;
6531;SDS011;3299;42.004;24.868;2023-04-06T00:51:59;9.98;;;8.00;;
6531;SDS011;3299;42.004;24.868;2023-04-06T00:54:26;8.88;;;7.97;;
6531;SDS011;3299;42.004;24.868;2023-04-06T00:56:52;9.93;;;8.35;;
6531;SDS011;3299;42.004;24.868;2023-04-06T00:59:17;8.10;;;7.30;;
6531;SDS011;3299;42.004;24.868;2023-04-06T01:01:43;8.32;;;7.38;;
6531;SDS011;3299;42.004;24.868;2023-04-06T01:04:08;9.05;;;7.40;;
6531;SDS011;3299;42.004;24.868;2023-04-06T01:06:34;8.05;;;7.30;;
6531;SDS011;3299;42.004;24.868;2023-04-06T01:09:00;8.23;;;7.25;;
6531;SDS011;3299;42.004;24.868;2023-04-06T01:11:25;8.75;;;7.38;;
6531;SDS011;3299;42.004;24.868;2023-04-06T01:13:51;8.75;;;7.57;;
6531;SDS011;3299;42.004;24.868;2023-04-06T01:16:17;7.43;;;6.72;;
6531;SDS011;3299;42.004;24.868;2023-04-06T01:18:42;8.27;;;7.38;;
6531;SDS011;3299;42.004;24.868;2023-04-06T01:21:08;8.02;;;7.22;;
6531;SDS011;3299;42.004;24.868;2023-04-06T01:23:40;9.05;;;7.10;;
6531;SDS011;3299;42.004;24.868;2023-04-06T01:26:07;8.13;;;7.25;;
6531;SDS011;3299;42.004;24.868;2023-04-06T01:28:33;8.52;;;7.70;;
6531;SDS011;3299;42.004;24.868;2023-04-06T01:30:58;7.57;;;6.88;;
6531;SDS011;3299;42.004;24.868;2023-04-06T01:33:23;8.48;;;7.68;;
6531;SDS011;3299;42.004;24.868;2023-04-06T01:35:49;7.95;;;7.15;;
6531;SDS011;3299;42.004;24.868;2023-04-06T01:38:14;7.88;;;6.95;;
6531;SDS011;3299;42.004;24.868;2023-04-06T01:40:40;7.93;;;7.13;;
6531;SDS011;3299;42.004;24.868;2023-04-06T01:43:05;7.45;;;6.85;;
6531;SDS011;3299;42.004;24.868;2023-04-06T01:45:31;9.82;;;8.30;;
6531;SDS011;3299;42.004;24.868;2023-04-06T01:47:57;8.38;;;7.47;;
6531;SDS011;3299;42.004;24.868;2023-04-06T01:50:22;8.40;;;7.47;;
6531;SDS011;3299;42.004;24.868;2023-04-06T01:52:48;8.82;;;7.93;;
6531;SDS011;3299;42.004;24.868;2023-04-06T01:55:13;10.55;;;8.73;;
6531;SDS011;3299;42.004;24.868;2023-04-06T01:57:38;9.23;;;8.20;;
6531;SDS011;3299;42.004;24.868;2023-04-06T02:00:04;8.90;;;8.00;;
6531;SDS011;3299;42.004;24.868;2023-04-06T02:02:30;9.55;;;8.15;;
6531;SDS011;3299;42.004;24.868;2023-04-06T02:04:55;11.77;;;9.55;;
6531;SDS011;3299;42.004;24.868;2023-04-06T02:07:21;10.05;;;8.50;;
6531;SDS011;3299;42.004;24.868;2023-04-06T02:09:46;10.43;;;8.25;;
6531;SDS011;3299;42.004;24.868;2023-04-06T02:12:12;10.25;;;8.57;;
6531;SDS011;3299;42.004;24.868;2023-04-06T02:14:37;12.75;;;8.88;;
6531;SDS011;3299;42.004;24.868;2023-04-06T02:17:02;10.43;;;8.82;;
6531;SDS011;3299;42.004;24.868;2023-04-06T02:19:28;9.98;;;8.70;;
6531;SDS011;3299;42.004;24.868;2023-04-06T02:21:53;9.68;;;8.68;;
6531;SDS011;3299;42.004;24.868;2023-04-06T02:24:19;10.05;;;8.65;;
6531;SDS011;3299;42.004;24.868;2023-04-06T02:26:44;10.63;;;8.98;;
6531;SDS011;3299;42.004;24.868;2023-04-06T02:29:10;10.13;;;8.82;;
6531;SDS011;3299;42.004;24.868;2023-04-06T02:31:35;8.98;;;8.07;;
6531;SDS011;3299;42.004;24.868;2023-04-06T02:34:01;11.63;;;8.68;;
6531;SDS011;3299;42.004;24.868;2023-04-06T02:36:26;10.13;;;8.30;;
6531;SDS011;3299;42.004;24.868;2023-04-06T02:38:52;9.18;;;8.27;;
6531;SDS011;3299;42.004;24.868;2023-04-06T02:41:17;11.80;;;9.20;;
6531;SDS011;3299;42.004;24.868;2023-04-06T02:43:42;9.77;;;8.77;;
6531;SDS011;3299;42.004;24.868;2023-04-06T02:46:08;9.43;;;8.50;;
6531;SDS011;3299;42.004;24.868;2023-04-06T02:48:33;10.18;;;8.88;;
6531;SDS011;3299;42.004;24.868;2023-04-06T02:51:01;9.85;;;8.57;;
6531;SDS011;3299;42.004;24.868;2023-04-06T02:53:26;9.85;;;8.65;;
6531;SDS011;3299;42.004;24.868;2023-04-06T02:55:52;9.48;;;8.27;;
6531;SDS011;3299;42.004;24.868;2023-04-06T02:58:18;11.25;;;9.50;;
6531;SDS011;3299;42.004;24.868;2023-04-06T03:00:43;11.18;;;8.30;;
6531;SDS011;3299;42.004;24.868;2023-04-06T03:03:09;10.35;;;9.00;;
6531;SDS011;3299;42.004;24.868;2023-04-06T03:05:34;11.88;;;10.27;;
6531;SDS011;3299;42.004;24.868;2023-04-06T03:08:00;9.05;;;8.15;;
6531;SDS011;3299;42.004;24.868;2023-04-06T03:10:25;9.23;;;8.13;;
6531;SDS011;3299;42.004;24.868;2023-04-06T03:12:51;11.15;;;9.00;;
6531;SDS011;3299;42.004;24.868;2023-04-06T03:15:16;9.75;;;8.23;;
6531;SDS011;3299;42.004;24.868;2023-04-06T03:17:42;10.48;;;7.88;;
6531;SDS011;3299;42.004;24.868;2023-04-06T03:20:07;14.13;;;8.85;;
6531;SDS011;3299;42.004;24.868;2023-04-06T03:22:33;10.07;;;9.07;;
6531;SDS011;3299;42.004;24.868;2023-04-06T03:24:58;9.93;;;8.70;;
6531;SDS011;3299;42.004;24.868;2023-04-06T03:27:23;10.98;;;9.35;;
6531;SDS011;3299;42.004;24.868;2023-04-06T03:29:49;9.98;;;8.68;;
6531;SDS011;3299;42.004;24.868;2023-04-06T03:32:14;10.57;;;9.48;;
6531;SDS011;3299;42.004;24.868;2023-04-06T03:34:40;8.88;;;7.35;;
6531;SDS011;3299;42.004;24.868;2023-04-06T03:37:05;10.02;;;8.20;;
6531;SDS011;3299;42.004;24.868;2023-04-06T03:39:30;7.53;;;6.70;;
6531;SDS011;3299;42.004;24.868;2023-04-06T03:41:56;6.68;;;5.93;;
6531;SDS011;3299;42.004;24.868;2023-04-06T03:44:22;7.10;;;6.43;;
6531;SDS011;3299;42.004;24.868;2023-04-06T03:46:47;8.02;;;6.80;;
6531;SDS011;3299;42.004;24.868;2023-04-06T03:49:12;7.60;;;6.38;;
6531;SDS011;3299;42.004;24.868;2023-04-06T03:51:38;7.32;;;6.25;;
6531;SDS011;3299;42.004;24.868;2023-04-06T03:54:03;6.60;;;5.93;;
6531;SDS011;3299;42.004;24.868;2023-04-06T03:56:29;7.65;;;6.35;;
6531;SDS011;3299;42.004;24.868;2023-04-06T03:58:55;7.95;;;7.10;;
6531;SDS011;3299;42.004;24.868;2023-04-06T04:01:20;7.60;;;6.13;;
6531;SDS011;3299;42.004;24.868;2023-04-06T04:03:45;6.70;;;6.10;;
6531;SDS011;3299;42.004;24.868;2023-04-06T04:06:11;11.43;;;6.25;;
6531;SDS011;3299;42.004;24.868;2023-04-06T04:08:36;6.10;;;5.53;;
6531;SDS011;3299;42.004;24.868;2023-04-06T04:11:02;7.00;;;6.30;;
6531;SDS011;3299;42.004;24.868;2023-04-06T04:13:27;8.35;;;6.50;;
6531;SDS011;3299;42.004;24.868;2023-04-06T04:15:53;6.25;;;5.65;;
6531;SDS011;3299;42.004;24.868;2023-04-06T04:18:18;6.38;;;5.78;;
6531;SDS011;3299;42.004;24.868;2023-04-06T04:20:44;6.78;;;5.72;;
6531;SDS011;3299;42.004;24.868;2023-04-06T04:23:09;6.85;;;6.15;;
6531;SDS011;3299;42.004;24.868;2023-04-06T04:25:35;6.03;;;5.43;;
6531;SDS011;3299;42.004;24.868;2023-04-06T04:28:00;6.60;;;6.00;;
6531;SDS011;3299;42.004;24.868;2023-04-06T04:30:26;7.40;;;6.53;;
6531;SDS011;3299;42.004;24.868;2023-04-06T04:32:51;7.63;;;6.47;;
6531;SDS011;3299;42.004;24.868;2023-04-06T04:35:17;6.53;;;5.80;;
6531;SDS011;3299;42.004;24.868;2023-04-06T04:37:42;6.70;;;5.93;;
6531;SDS011;3299;42.004;24.868;2023-04-06T04:40:08;8.88;;;6.68;;
6531;SDS011;3299;42.004;24.868;2023-04-06T04:42:33;8.05;;;6.20;;
6531;SDS011;3299;42.004;24.868;2023-04-06T04:44:59;6.00;;;5.40;;
6531;SDS011;3299;42.004;24.868;2023-04-06T04:47:25;6.70;;;6.00;;
6531;SDS011;3299;42.004;24.868;2023-04-06T04:49:50;6.20;;;5.60;;
6531;SDS011;3299;42.004;24.868;2023-04-06T04:52:15;7.25;;;6.57;;
6531;SDS011;3299;42.004;24.868;2023-04-06T04:54:41;7.40;;;6.05;;
6531;SDS011;3299;42.004;24.868;2023-04-06T04:57:06;7.93;;;6.45;;
6531;SDS011;3299;42.004;24.868;2023-04-06T04:59:32;7.20;;;6.50;;
6531;SDS011;3299;42.004;24.868;2023-04-06T05:01:58;7.53;;;6.72;;
6531;SDS011;3299;42.004;24.868;2023-04-06T05:04:24;6.57;;;5.90;;
6531;SDS011;3299;42.004;24.868;2023-04-06T05:06:49;6.88;;;6.13;;
6531;SDS011;3299;42.004;24.868;2023-04-06T05:09:15;6.78;;;6.18;;
6531;SDS011;3299;42.004;24.868;2023-04-06T05:11:40;8.43;;;7.25;;
6531;SDS011;3299;42.004;24.868;2023-04-06T05:14:06;6.53;;;5.93;;
6531;SDS011;3299;42.004;24.868;2023-04-06T05:16:32;7.20;;;6.40;;
6531;SDS011;3299;42.004;24.868;2023-04-06T05:18:58;6.65;;;6.05;;
6531;SDS011;3299;42.004;24.868;2023-04-06T05:21:24;6.70;;;6.20;;
6531;SDS011;3299;42.004;24.868;2023-04-06T05:23:51;6.60;;;6.00;;
6531;SDS011;3299;42.004;24.868;2023-04-06T05:26:16;8.18;;;6.35;;
6531;SDS011;3299;42.004;24.868;2023-04-06T05:28:41;9.32;;;6.65;;
6531;SDS011;3299;42.004;24.868;2023-04-06T05:31:09;7.28;;;6.45;;
6531;SDS011;3299;42.004;24.868;2023-04-06T05:33:34;8.55;;;7.13;;
6531;SDS011;3299;42.004;24.868;2023-04-06T05:36:00;7.93;;;6.47;;
6531;SDS011;3299;42.004;24.868;2023-04-06T05:38:26;9.00;;;6.97;;
6531;SDS011;3299;42.004;24.868;2023-04-06T05:40:51;6.30;;;5.70;;
6531;SDS011;3299;42.004;24.868;2023-04-06T05:43:16;8.85;;;7.03;;
6531;SDS011;3299;42.004;24.868;2023-04-06T05:45:43;7.80;;;6.97;;
6531;SDS011;3299;42.004;24.868;2023-04-06T05:48:10;7.85;;;7.05;;
6531;SDS011;3299;42.004;24.868;2023-04-06T05:50:35;6.57;;;5.97;;
6531;SDS011;3299;42.004;24.868;2023-04-06T05:53:00;8.82;;;7.22;;
6531;SDS011;3299;42.004;24.868;2023-04-06T05:55:26;7.93;;;7.13;;
6531;SDS011;3299;42.004;24.868;2023-04-06T05:57:52;7.68;;;6.85;;
6531;SDS011;3299;42.004;24.868;2023-04-06T06:00:18;10.93;;;6.93;;
6531;SDS011;3299;42.004;24.868;2023-04-06T06:02:44;7.70;;;7.00;;
6531;SDS011;3299;42.004;24.868;2023-04-06T06:05:09;8.75;;;6.78;;
6531;SDS011;3299;42.004;24.868;2023-04-06T06:07:37;7.82;;;7.05;;
6531;SDS011;3299;42.004;24.868;2023-04-06T06:10:02;7.68;;;6.88;;
6531;SDS011;3299;42.004;24.868;2023-04-06T06:12:28;8.90;;;6.63;;
6531;SDS011;3299;42.004;24.868;2023-04-06T06:14:53;8.48;;;6.80;;
6531;SDS011;3299;42.004;24.868;2023-04-06T06:17:20;9.50;;;6.70;;
6531;SDS011;3299;42.004;24.868;2023-04-06T06:19:45;6.82;;;6.22;;
6531;SDS011;3299;42.004;24.868;2023-04-06T06:22:11;6.68;;;6.00;;
6531;SDS011;3299;42.004;24.868;2023-04-06T06:24:36;7.05;;;5.72;;
6531;SDS011;3299;42.004;24.868;2023-04-06T06:27:02;6.95;;;6.25;;
6531;SDS011;3299;42.004;24.868;2023-04-06T06:29:27;6.50;;;5.88;;
6531;SDS011;3299;42.004;24.868;2023-04-06T06:31:52;6.13;;;5.60;;
6531;SDS011;3299;42.004;24.868;2023-04-06T06:34:18;6.05;;;5.32;;
6531;SDS011;3299;42.004;24.868;2023-04-06T06:36:43;6.40;;;5.80;;
6531;SDS011;3299;42.004;24.868;2023-04-06T06:39:09;6.05;;;5.55;;
6531;SDS011;3299;42.004;24.868;2023-04-06T06:41:34;7.15;;;6.45;;
6531;SDS011;3299;42.004;24.868;2023-04-06T06:44:00;6.50;;;5.97;;
6531;SDS011;3299;42.004;24.868;2023-04-06T06:46:26;6.28;;;5.65;;
6531;SDS011;3299;42.004;24.868;2023-04-06T06:48:51;6.53;;;6.00;;
6531;SDS011;3299;42.004;24.868;2023-04-06T06:51:17;6.60;;;5.90;;
6531;SDS011;3299;42.004;24.868;2023-04-06T06:53:42;6.60;;;6.00;;
6531;SDS011;3299;42.004;24.868;2023-04-06T06:56:08;6.82;;;6.13;;
6531;SDS011;3299;42.004;24.868;2023-04-06T06:58:33;6.70;;;6.10;;
6531;SDS011;3299;42.004;24.868;2023-04-06T07:00:59;6.13;;;5.40;;
6531;SDS011;3299;42.004;24.868;2023-04-06T07:03:25;7.38;;;6.60;;
6531;SDS011;3299;42.004;24.868;2023-04-06T07:05:50;6.63;;;5.95;;
6531;SDS011;3299;42.004;24.868;2023-04-06T07:08:19;6.57;;;5.90;;
6531;SDS011;3299;42.004;24.868;2023-04-06T07:10:45;7.05;;;6.30;;
6531;SDS011;3299;42.004;24.868;2023-04-06T07:13:11;5.80;;;5.30;;
6531;SDS011;3299;42.004;24.868;2023-04-06T07:15:37;6.45;;;5.65;;
6531;SDS011;3299;42.004;24.868;2023-04-06T07:18:02;8.13;;;6.50;;
6531;SDS011;3299;42.004;24.868;2023-04-06T07:20:28;7.00;;;6.40;;
6531;SDS011;3299;42.004;24.868;2023-04-06T07:22:53;5.95;;;5.35;;
6531;SDS011;3299;42.004;24.868;2023-04-06T07:25:19;5.88;;;5.38;;
6531;SDS011;3299;42.004;24.868;2023-04-06T07:27:45;6.30;;;5.80;;
6531;SDS011;3299;42.004;24.868;2023-04-06T07:30:11;3.42;;;3.15;;
6531;SDS011;3299;42.004;24.868;2023-04-06T07:32:39;2.53;;;2.42;;
6531;SDS011;3299;42.004;24.868;2023-04-06T07:35:05;3.13;;;2.92;;
6531;SDS011;3299;42.004;24.868;2023-04-06T07:37:30;3.67;;;3.28;;
6531;SDS011;3299;42.004;24.868;2023-04-06T07:39:56;2.63;;;2.53;;
6531;SDS011;3299;42.004;24.868;2023-04-06T07:42:21;3.20;;;3.00;;
6531;SDS011;3299;42.004;24.868;2023-04-06T07:44:47;3.60;;;3.40;;
6531;SDS011;3299;42.004;24.868;2023-04-06T07:47:13;2.92;;;2.72;;
6531;SDS011;3299;42.004;24.868;2023-04-06T07:49:38;3.15;;;2.95;;
6531;SDS011;3299;42.004;24.868;2023-04-06T07:52:04;3.45;;;3.25;;
6531;SDS011;3299;42.004;24.868;2023-04-06T07:54:29;3.60;;;3.40;;
6531;SDS011;3299;42.004;24.868;2023-04-06T07:56:55;2.78;;;2.53;;
6531;SDS011;3299;42.004;24.868;2023-04-06T07:59:20;2.78;;;2.60;;
6531;SDS011;3299;42.004;24.868;2023-04-06T08:01:46;2.53;;;2.40;;
6531;SDS011;3299;42.004;24.868;2023-04-06T08:04:11;3.00;;;2.80;;
6531;SDS011;3299;42.004;24.868;2023-04-06T08:06:37;2.97;;;2.78;;
6531;SDS011;3299;42.004;24.868;2023-04-06T08:09:02;3.10;;;2.90;;
6531;SDS011;3299;42.004;24.868;2023-04-06T08:11:28;3.50;;;3.20;;
6531;SDS011;3299;42.004;24.868;2023-04-06T08:13:54;3.17;;;2.88;;
6531;SDS011;3299;42.004;24.868;2023-04-06T08:16:21;3.35;;;3.15;;
6531;SDS011;3299;42.004;24.868;2023-04-06T08:18:47;3.40;;;3.10;;
6531;SDS011;3299;42.004;24.868;2023-04-06T08:21:12;3.20;;;2.90;;
6531;SDS011;3299;42.004;24.868;2023-04-06T08:23:38;3.50;;;3.20;;
6531;SDS011;3299;42.004;24.868;2023-04-06T08:26:04;3.20;;;3.00;;
6531;SDS011;3299;42.004;24.868;2023-04-06T08:28:29;3.00;;;2.80;;
6531;SDS011;3299;42.004;24.868;2023-04-06T08:30:55;3.28;;;2.97;;
6531;SDS011;3299;42.004;24.868;2023-04-06T08:33:20;3.33;;;3.05;;
6531;SDS011;3299;42.004;24.868;2023-04-06T08:35:46;3.25;;;3.05;;
6531;SDS011;3299;42.004;24.868;2023-04-06T08:38:11;3.50;;;3.25;;
6531;SDS011;3299;42.004;24.868;2023-04-06T08:40:37;3.17;;;2.97;;
6531;SDS011;3299;42.004;24.868;2023-04-06T08:43:03;3.35;;;3.15;;
6531;SDS011;3299;42.004;24.868;2023-04-06T08:45:33;3.28;;;3.00;;
6531;SDS011;3299;42.004;24.868;2023-04-06T08:47:59;2.97;;;2.78;;
6531;SDS011;3299;42.004;24.868;2023-04-06T08:50:26;2.90;;;2.70;;
6531;SDS011;3299;42.004;24.868;2023-04-06T08:52:54;3.72;;;3.42;;
6531;SDS011;3299;42.004;24.868;2023-04-06T08:55:20;4.97;;;3.60;;
6531;SDS011;3299;42.004;24.868;2023-04-06T08:57:47;3.30;;;3.08;;
6531;SDS011;3299;42.004;24.868;2023-04-06T09:00:13;4.40;;;4.00;;
6531;SDS011;3299;42.004;24.868;2023-04-06T09:02:39;4.82;;;4.43;;
6531;SDS011;3299;42.004;24.868;2023-04-06T09:05:08;3.70;;;3.50;;
6531;SDS011;3299;42.004;24.868;2023-04-06T09:07:37;5.35;;;4.00;;
6531;SDS011;3299;42.004;24.868;2023-04-06T09:10:04;4.10;;;3.80;;
6531;SDS011;3299;42.004;24.868;2023-04-06T09:12:30;4.18;;;3.75;;
6531;SDS011;3299;42.004;24.868;2023-04-06T09:14:57;4.07;;;2.90;;
6531;SDS011;3299;42.004;24.868;2023-04-06T09:17:24;3.92;;;3.53;;
6531;SDS011;3299;42.004;24.868;2023-04-06T09:19:51;4.03;;;3.72;;
6531;SDS011;3299;42.004;24.868;2023-04-06T09:22:18;4.00;;;3.60;;
6531;SDS011;3299;42.004;24.868;2023-04-06T09:24:47;4.95;;;3.95;;
6531;SDS011;3299;42.004;24.868;2023-04-06T09:27:15;5.63;;;3.85;;
6531;SDS011;3299;42.004;24.868;2023-04-06T09:29:42;4.13;;;3.70;;
6531;SDS011;3299;42.004;24.868;2023-04-06T09:32:09;3.55;;;3.25;;
6531;SDS011;3299;42.004;24.868;2023-04-06T09:34:37;4.88;;;3.90;;
6531;SDS011;3299;42.004;24.868;2023-04-06T09:37:16;4.53;;;3.92;;
6531;SDS011;3299;42.004;24.868;2023-04-06T09:39:43;4.88;;;4.47;;
6531;SDS011;3299;42.004;24.868;2023-04-06T09:42:10;5.10;;;4.60;;
6531;SDS011;3299;42.004;24.868;2023-04-06T09:44:36;5.75;;;5.05;;
6531;SDS011;3299;42.004;24.868;2023-04-06T09:47:02;5.88;;;5.30;;
6531;SDS011;3299;42.004;24.868;2023-04-06T09:49:32;4.28;;;3.97;;
6531;SDS011;3299;42.004;24.868;2023-04-06T09:51:59;5.13;;;4.32;;
6531;SDS011;3299;42.004;24.868;2023-04-06T09:54:31;4.47;;;4.18;;
6531;SDS011;3299;42.004;24.868;2023-04-06T09:59:57;4.10;;;3.70;;
6531;SDS011;3299;42.004;24.868;2023-04-06T10:02:39;6.28;;;4.93;;
6531;SDS011;3299;42.004;24.868;2023-04-06T10:05:19;5.80;;;4.75;;
6531;SDS011;3299;42.004;24.868;2023-04-06T10:07:45;5.63;;;5.13;;
6531;SDS011;3299;42.004;24.868;2023-04-06T10:10:15;7.50;;;5.45;;
6531;SDS011;3299;42.004;24.868;2023-04-06T10:12:41;6.45;;;4.95;;
6531;SDS011;3299;42.004;24.868;2023-04-06T10:15:07;5.13;;;4.55;;
6531;SDS011;3299;42.004;24.868;2023-04-06T10:17:33;5.03;;;4.50;;
6531;SDS011;3299;42.004;24.868;2023-04-06T10:22:55;5.10;;;4.70;;
6531;SDS011;3299;42.004;24.868;2023-04-06T10:25:30;5.13;;;4.68;;
6531;SDS011;3299;42.004;24.868;2023-04-06T10:28:06;4.97;;;4.47;;
6531;SDS011;3299;42.004;24.868;2023-04-06T10:30:33;5.47;;;4.93;;
6531;SDS011;3299;42.004;24.868;2023-04-06T10:33:00;4.45;;;3.90;;
6531;SDS011;3299;42.004;24.868;2023-04-06T10:35:35;4.47;;;4.07;;
6531;SDS011;3299;42.004;24.868;2023-04-06T10:38:03;4.57;;;4.18;;
6531;SDS011;3299;42.004;24.868;2023-04-06T10:40:30;5.13;;;4.72;;
6531;SDS011;3299;42.004;24.868;2023-04-06T10:46:04;4.25;;;3.70;;
6531;SDS011;3299;42.004;24.868;2023-04-06T10:51:12;4.93;;;4.53;;
6531;SDS011;3299;42.004;24.868;2023-04-06T10:53:39;5.07;;;4.57;;
6531;SDS011;3299;42.004;24.868;2023-04-06T10:56:09;5.35;;;4.80;;
6531;SDS011;3299;42.004;24.868;2023-04-06T10:58:38;5.57;;;5.00;;
6531;SDS011;3299;42.004;24.868;2023-04-06T11:01:08;5.88;;;5.28;;
6531;SDS011;3299;42.004;24.868;2023-04-06T11:03:42;5.20;;;4.60;;
6531;SDS011;3299;42.004;24.868;2023-04-06T11:06:09;5.70;;;4.97;;
6531;SDS011;3299;42.004;24.868;2023-04-06T11:08:35;4.15;;;3.83;;
6531;SDS011;3299;42.004;24.868;2023-04-06T11:13:41;4.70;;;4.30;;
6531;SDS011;3299;42.004;24.868;2023-04-06T11:21:34;6.88;;;4.38;;
6531;SDS011;3299;42.004;24.868;2023-04-06T11:24:07;5.53;;;4.93;;
6531;SDS011;3299;42.004;24.868;2023-04-06T11:26:54;5.82;;;5.22;;
6531;SDS011;3299;42.004;24.868;2023-04-06T11:29:22;5.60;;;5.10;;
6531;SDS011;3299;42.004;24.868;2023-04-06T11:31:49;7.45;;;5.25;;
6531;SDS011;3299;42.004;24.868;2023-04-06T11:34:20;4.90;;;4.50;;
6531;SDS011;3299;42.004;24.868;2023-04-06T11:36:48;5.15;;;4.75;;
6531;SDS011;3299;42.004;24.868;2023-04-06T11:39:19;6.53;;;5.55;;
6531;SDS011;3299;42.004;24.868;2023-04-06T11:41:52;4.32;;;3.92;;
6531;SDS011;3299;42.004;24.868;2023-04-06T11:46:56;5.45;;;4.95;;
6531;SDS011;3299;42.004;24.868;2023-04-06T11:49:26;5.85;;;3.90;;
6531;SDS011;3299;42.004;24.868;2023-04-06T11:51:52;4.60;;;4.13;;
6531;SDS011;3299;42.004;24.868;2023-04-06T11:54:17;5.82;;;4.10;;
6531;SDS011;3299;42.004;24.868;2023-04-06T11:56:45;5.30;;;4.80;;
6531;SDS011;3299;42.004;24.868;2023-04-06T11:59:11;4.57;;;4.18;;
6531;SDS011;3299;42.004;24.868;2023-04-06T12:01:44;7.50;;;5.50;;
6531;SDS011;3299;42.004;24.868;2023-04-06T12:04:10;5.22;;;4.72;;
6531;SDS011;3299;42.004;24.868;2023-04-06T12:06:35;7.20;;;5.35;;
6531;SDS011;3299;42.004;24.868;2023-04-06T12:09:01;5.22;;;4.72;;
6531;SDS011;3299;42.004;24.868;2023-04-06T12:11:26;7.53;;;5.65;;
6531;SDS011;3299;42.004;24.868;2023-04-06T12:13:52;6.32;;;4.90;;
6531;SDS011;3299;42.004;24.868;2023-04-06T12:16:18;9.15;;;6.43;;
6531;SDS011;3299;42.004;24.868;2023-04-06T12:18:44;5.63;;;5.13;;
6531;SDS011;3299;42.004;24.868;2023-04-06T12:21:09;5.55;;;5.05;;
6531;SDS011;3299;42.004;24.868;2023-04-06T12:23:35;5.70;;;5.20;;
6531;SDS011;3299;42.004;24.868;2023-04-06T12:26:01;5.32;;;4.82;;
6531;SDS011;3299;42.004;24.868;2023-04-06T12:28:27;6.05;;;4.72;;
6531;SDS011;3299;42.004;24.868;2023-04-06T12:30:52;8.45;;;5.80;;
6531;SDS011;3299;42.004;24.868;2023-04-06T12:33:18;5.60;;;5.10;;
6531;SDS011;3299;42.004;24.868;2023-04-06T12:35:44;5.80;;;5.30;;
6531;SDS011;3299;42.004;24.868;2023-04-06T12:38:10;5.25;;;4.75;;
6531;SDS011;3299;42.004;24.868;2023-04-06T12:40:38;7.97;;;6.28;;
6531;SDS011;3299;42.004;24.868;2023-04-06T12:43:04;5.97;;;5.43;;
6531;SDS011;3299;42.004;24.868;2023-04-06T12:45:31;5.50;;;5.05;;
6531;SDS011;3299;42.004;24.868;2023-04-06T12:47:56;6.97;;;6.28;;
6531;SDS011;3299;42.004;24.868;2023-04-06T12:50:22;7.07;;;6.38;;
6531;SDS011;3299;42.004;24.868;2023-04-06T12:52:47;6.38;;;5.72;;
6531;SDS011;3299;42.004;24.868;2023-04-06T12:55:13;5.60;;;5.07;;
6531;SDS011;3299;42.004;24.868;2023-04-06T12:57:38;6.35;;;5.68;;
6531;SDS011;3299;42.004;24.868;2023-04-06T13:00:05;7.70;;;6.43;;
6531;SDS011;3299;42.004;24.868;2023-04-06T13:02:32;6.97;;;6.15;;
6531;SDS011;3299;42.004;24.868;2023-04-06T13:04:58;9.55;;;7.93;;
6531;SDS011;3299;42.004;24.868;2023-04-06T13:07:23;7.40;;;6.35;;
6531;SDS011;3299;42.004;24.868;2023-04-06T13:09:48;8.38;;;6.82;;
6531;SDS011;3299;42.004;24.868;2023-04-06T13:12:14;6.53;;;5.90;;
6531;SDS011;3299;42.004;24.868;2023-04-06T13:14:40;8.25;;;6.32;;
6531;SDS011;3299;42.004;24.868;2023-04-06T13:17:06;6.65;;;5.50;;
6531;SDS011;3299;42.004;24.868;2023-04-06T13:19:32;5.55;;;5.05;;
6531;SDS011;3299;42.004;24.868;2023-04-06T13:21:57;5.63;;;5.20;;
6531;SDS011;3299;42.004;24.868;2023-04-06T13:24:23;6.75;;;5.47;;
6531;SDS011;3299;42.004;24.868;2023-04-06T13:26:49;10.23;;;5.97;;
6531;SDS011;3299;42.004;24.868;2023-04-06T13:29:14;6.18;;;5.63;;
6531;SDS011;3299;42.004;24.868;2023-04-06T13:31:40;7.07;;;6.38;;
6531;SDS011;3299;42.004;24.868;2023-04-06T13:34:06;6.60;;;5.15;;
6531;SDS011;3299;42.004;24.868;2023-04-06T13:36:31;6.38;;;5.40;;
6531;SDS011;3299;42.004;24.868;2023-04-06T13:38:57;5.82;;;5.32;;
6531;SDS011;3299;42.004;24.868;2023-04-06T13:41:23;6.45;;;5.85;;
6531;SDS011;3299;42.004;24.868;2023-04-06T13:43:50;6.03;;;5.45;;
6531;SDS011;3299;42.004;24.868;2023-04-06T13:46:16;7.28;;;6.63;;
6531;SDS011;3299;42.004;24.868;2023-04-06T13:48:42;5.38;;;4.88;;
6531;SDS011;3299;42.004;24.868;2023-04-06T13:51:11;6.75;;;5.50;;
6531;SDS011;3299;42.004;24.868;2023-04-06T13:53:37;6.30;;;5.70;;
6531;SDS011;3299;42.004;24.868;2023-04-06T13:56:03;6.63;;;6.03;;
6531;SDS011;3299;42.004;24.868;2023-04-06T13:58:28;6.80;;;5.97;;
6531;SDS011;3299;42.004;24.868;2023-04-06T14:00:54;6.75;;;6.07;;
6531;SDS011;3299;42.004;24.868;2023-04-06T14:03:20;5.80;;;5.30;;
6531;SDS011;3299;42.004;24.868;2023-04-06T14:05:47;7.30;;;5.75;;
6531;SDS011;3299;42.004;24.868;2023-04-06T14:08:12;6.00;;;5.40;;
6531;SDS011;3299;42.004;24.868;2023-04-06T14:10:38;5.72;;;5.18;;
6531;SDS011;3299;42.004;24.868;2023-04-06T14:13:05;5.97;;;5.43;;
6531;SDS011;3299;42.004;24.868;2023-04-06T14:15:31;6.03;;;5.07;;
6531;SDS011;3299;42.004;24.868;2023-04-06T14:17:56;6.20;;;5.57;;
6531;SDS011;3299;42.004;24.868;2023-04-06T14:20:22;5.82;;;5.07;;
6531;SDS011;3299;42.004;24.868;2023-04-06T14:22:48;6.22;;;5.32;;
6531;SDS011;3299;42.004;24.868;2023-04-06T14:25:14;5.50;;;5.00;;
6531;SDS011;3299;42.004;24.868;2023-04-06T14:27:41;6.40;;;5.80;;
6531;SDS011;3299;42.004;24.868;2023-04-06T14:30:07;7.50;;;5.53;;
6531;SDS011;3299;42.004;24.868;2023-04-06T14:32:33;6.15;;;5.55;;
6531;SDS011;3299;42.004;24.868;2023-04-06T14:34:59;5.68;;;5.18;;
6531;SDS011;3299;42.004;24.868;2023-04-06T14:37:25;6.75;;;6.05;;
6531;SDS011;3299;42.004;24.868;2023-04-06T14:39:51;32.10;;;17.77;;
6531;SDS011;3299;42.004;24.868;2023-04-06T14:42:16;14.00;;;10.20;;
6531;SDS011;3299;42.004;24.868;2023-04-06T14:44:41;13.48;;;8.70;;
6531;SDS011;3299;42.004;24.868;2023-04-06T14:47:09;6.50;;;5.82;;
6531;SDS011;3299;42.004;24.868;2023-04-06T14:49:35;11.00;;;7.63;;
6531;SDS011;3299;42.004;24.868;2023-04-06T14:52:00;9.77;;;8.20;;
6531;SDS011;3299;42.004;24.868;2023-04-06T14:54:26;13.32;;;9.60;;
6531;SDS011;3299;42.004;24.868;2023-04-06T14:56:51;6.07;;;5.35;;
6531;SDS011;3299;42.004;24.868;2023-04-06T14:59:17;22.48;;;12.13;;
6531;SDS011;3299;42.004;24.868;2023-04-06T15:01:42;225.48;;;62.58;;
6531;SDS011;3299;42.004;24.868;2023-04-06T15:04:07;95.20;;;34.33;;
6531;SDS011;3299;42.004;24.868;2023-04-06T15:06:33;29.25;;;16.15;;
6531;SDS011;3299;42.004;24.868;2023-04-06T15:08:58;15.27;;;10.40;;
6531;SDS011;3299;42.004;24.868;2023-04-06T15:11:24;53.05;;;31.02;;
6531;SDS011;3299;42.004;24.868;2023-04-06T15:13:49;18.75;;;13.90;;
6531;SDS011;3299;42.004;24.868;2023-04-06T15:16:15;39.58;;;23.48;;